Time,TemperatureF,DewpointF,PressureIn,WindDirection,WindDirectionDegrees,WindSpeedMPH,WindSpeedGustMPH,Humidity,HourlyPrecipIn,Conditions,Clouds,dailyrainin,SoftwareType,DateUTC
2013-04-06 00:21:00,43.0,37.0,30.22,ENE,62,0.0,0.0,80,0.00,,,0.00,weatherlink.com 1.10,2013-04-06 04:21:00,
2013-04-06 00:52:00,39.6,36.0,30.23,ENE,62,0.0,0.0,85,0.00,,,0.00,weatherlink.com 1.10,2013-04-06 04:52:00,
2013-04-06 01:07:00,38.7,35.0,30.23,ENE,62,0.0,0.0,87,0.00,,,0.00,weatherlink.com 1.10,2013-04-06 05:07:00,
2013-04-06 01:21:00,38.2,35.0,30.24,ENE,62,0.0,0.0,88,0.00,,,0.00,weatherlink.com 1.10,2013-04-06 05:21:00,
2013-04-06 01:36:00,39.0,36.0,30.24,ENE,62,0.0,0.0,87,0.00,,,0.00,weatherlink.com 1.10,2013-04-06 05:36:00,
2013-04-06 01:51:00,38.7,35.0,30.24,NE,53,0.0,0.0,87,0.00,,,0.00,weatherlink.com 1.10,2013-04-06 05:51:00,
2013-04-06 02:07:00,39.2,35.0,30.24,NE,54,0.0,0.0,86,0.00,,,0.00,weatherlink.com 1.10,2013-04-06 06:07:00,
2013-04-06 02:22:00,38.4,35.0,30.24,ENE,70,0.0,0.0,86,0.00,,,0.00,weatherlink.com 1.10,2013-04-06 06:22:00,
2013-04-06 02:37:00,37.6,34.0,30.24,ENE,70,0.0,0.0,88,0.00,,,0.00,weatherlink.com 1.10,2013-04-06 06:37:00,
2013-04-06 02:52:00,37.1,34.0,30.24,ENE,68,0.0,0.0,88,0.00,,,0.00,weatherlink.com 1.10,2013-04-06 06:52:00,
2013-04-06 03:07:00,35.8,33.0,30.24,ENE,68,0.0,0.0,89,0.00,,,0.00,weatherlink.com 1.10,2013-04-06 07:07:00,
2013-04-06 03:22:00,35.2,32.0,30.24,ENE,68,0.0,0.0,89,0.00,,,0.00,weatherlink.com 1.10,2013-04-06 07:22:00,
2013-04-06 03:37:00,35.3,32.0,30.23,ENE,68,0.0,0.0,89,0.00,,,0.00,weatherlink.com 1.10,2013-04-06 07:37:00,
2013-04-06 03:52:00,34.2,31.0,30.23,ENE,68,0.0,0.0,89,0.00,,,0.00,weatherlink.com 1.10,2013-04-06 07:52:00,
2013-04-06 04:07:00,34.3,31.0,30.23,ENE,68,0.0,0.0,89,0.00,,,0.00,weatherlink.com 1.10,2013-04-06 08:07:00,
2013-04-06 04:22:00,34.5,32.0,30.23,ENE,68,0.0,0.0,89,0.00,,,0.00,weatherlink.com 1.10,2013-04-06 08:22:00,
2013-04-06 04:37:00,34.4,32.0,30.24,ENE,68,0.0,0.0,90,0.00,,,0.00,weatherlink.com 1.10,2013-04-06 08:37:00,
2013-04-06 05:07:00,33.7,30.0,30.24,ENE,68,0.0,0.0,87,0.00,,,0.00,weatherlink.com 1.10,2013-04-06 09:07:00,
2013-04-06 05:22:00,34.3,31.0,30.24,ENE,68,0.0,0.0,87,0.00,,,0.00,weatherlink.com 1.10,2013-04-06 09:22:00,
2013-04-06 05:37:00,33.8,31.0,30.25,ENE,68,0.0,0.0,89,0.00,,,0.00,weatherlink.com 1.10,2013-04-06 09:37:00,
2013-04-06 05:52:00,32.9,30.0,30.26,ENE,68,0.0,0.0,90,0.00,,,0.00,weatherlink.com 1.10,2013-04-06 09:52:00,
2013-04-06 06:07:00,32.6,30.0,30.26,ENE,68,0.0,0.0,89,0.00,,,0.00,weatherlink.com 1.10,2013-04-06 10:07:00,
2013-04-06 06:37:00,32.3,30.0,30.27,ENE,62,0.0,0.0,89,0.00,,,0.00,weatherlink.com 1.10,2013-04-06 10:37:00,
2013-04-06 06:52:00,31.1,29.0,30.28,ENE,62,0.0,0.0,90,0.00,,,0.00,weatherlink.com 1.10,2013-04-06 10:52:00,
2013-04-06 07:07:00,32.0,28.0,30.29,ENE,62,0.0,0.0,86,0.00,,,0.00,weatherlink.com 1.10,2013-04-06 11:07:00,
2013-04-06 07:22:00,31.8,28.0,30.30,ENE,62,0.0,0.0,87,0.00,,,0.00,weatherlink.com 1.10,2013-04-06 11:22:00,
2013-04-06 07:37:00,32.3,29.0,30.30,ENE,62,0.0,0.0,86,0.00,,,0.00,weatherlink.com 1.10,2013-04-06 11:37:00,
2013-04-06 07:52:00,32.1,29.0,30.31,ENE,63,0.0,0.0,87,0.00,,,0.00,weatherlink.com 1.10,2013-04-06 11:52:00,
2013-04-06 08:07:00,32.8,29.0,30.31,ENE,62,0.0,0.0,86,0.00,,,0.00,weatherlink.com 1.10,2013-04-06 12:07:00,
2013-04-06 08:22:00,32.9,29.0,30.32,ENE,62,0.0,0.0,86,0.00,,,0.00,weatherlink.com 1.10,2013-04-06 12:22:00,
2013-04-06 08:37:00,33.3,30.0,30.32,ENE,63,0.0,0.0,86,0.00,,,0.00,weatherlink.com 1.10,2013-04-06 12:37:00,
2013-04-06 08:52:00,34.0,30.0,30.32,ENE,62,0.0,0.0,85,0.00,,,0.00,weatherlink.com 1.10,2013-04-06 12:52:00,
2013-04-06 09:08:00,35.7,32.0,30.33,ENE,63,0.0,0.0,85,0.00,,,0.00,weatherlink.com 1.10,2013-04-06 13:08:00,
2013-04-06 09:22:00,36.9,33.0,30.32,ENE,64,0.0,0.0,85,0.00,,,0.00,weatherlink.com 1.10,2013-04-06 13:22:00,
2013-04-06 09:37:00,38.7,35.0,30.33,ENE,63,0.0,0.0,85,0.00,,,0.00,weatherlink.com 1.10,2013-04-06 13:37:00,
2013-04-06 09:53:00,41.0,37.0,30.33,ENE,63,0.0,0.0,85,0.00,,,0.00,weatherlink.com 1.10,2013-04-06 13:53:00,
2013-04-06 10:08:00,44.0,41.0,30.33,ENE,63,0.0,0.0,89,0.00,,,0.00,weatherlink.com 1.10,2013-04-06 14:08:00,
2013-04-06 10:23:00,49.2,42.0,30.33,East,83,0.0,1.0,77,0.00,,,0.00,weatherlink.com 1.10,2013-04-06 14:23:00,
2013-04-06 10:38:00,53.0,42.0,30.33,East,89,0.0,0.0,67,0.00,,,0.00,weatherlink.com 1.10,2013-04-06 14:38:00,
2013-04-06 10:53:00,55.7,40.0,30.33,SSE,159,0.0,0.0,57,0.00,,,0.00,weatherlink.com 1.10,2013-04-06 14:53:00,
2013-04-06 11:08:00,57.7,39.0,30.33,SE,134,0.0,2.0,51,0.00,,,0.00,weatherlink.com 1.10,2013-04-06 15:08:00,
2013-04-06 11:23:00,59.5,39.0,30.32,SSE,163,0.0,0.0,47,0.00,,,0.00,weatherlink.com 1.10,2013-04-06 15:23:00,
2013-04-06 11:38:00,61.3,38.0,30.33,SW,236,0.0,4.0,42,0.00,,,0.00,weatherlink.com 1.10,2013-04-06 15:38:00,
2013-04-06 11:53:00,62.9,37.0,30.33,East,84,0.0,0.0,38,0.00,,,0.00,weatherlink.com 1.10,2013-04-06 15:53:00,
2013-04-06 12:08:00,63.7,37.0,30.33,SW,224,0.0,1.0,37,0.00,,,0.00,weatherlink.com 1.10,2013-04-06 16:08:00,
2013-04-06 12:23:00,65.0,38.0,30.33,SE,129,0.0,0.0,37,0.00,,,0.00,weatherlink.com 1.10,2013-04-06 16:23:00,
2013-04-06 12:38:00,66.1,36.0,30.32,WSW,252,2.0,5.0,33,0.00,,,0.00,weatherlink.com 1.10,2013-04-06 16:38:00,
2013-04-06 12:53:00,67.4,39.0,30.32,SW,221,0.0,0.0,35,0.00,,,0.00,weatherlink.com 1.10,2013-04-06 16:53:00,
2013-04-06 13:11:00,66.9,37.0,30.31,WSW,238,0.0,2.0,33,0.00,,,0.00,weatherlink.com 1.10,2013-04-06 17:11:00,
2013-04-06 13:39:00,69.0,38.0,30.30,SSE,149,0.0,4.0,32,0.00,,,0.00,weatherlink.com 1.10,2013-04-06 17:39:00,
2013-04-06 14:24:00,70.2,37.0,30.28,SSW,208,0.0,3.0,30,0.00,,,0.00,weatherlink.com 1.10,2013-04-06 18:24:00,
2013-04-06 14:54:00,70.7,39.0,30.27,South,181,0.0,2.0,31,0.00,,,0.00,weatherlink.com 1.10,2013-04-06 18:54:00,
2013-04-06 15:09:00,69.6,38.0,30.26,WSW,248,1.0,7.0,32,0.00,,,0.00,weatherlink.com 1.10,2013-04-06 19:09:00,
2013-04-06 15:24:00,69.8,35.0,30.26,NW,307,0.0,4.0,28,0.00,,,0.00,weatherlink.com 1.10,2013-04-06 19:24:00,
2013-04-06 15:39:00,69.3,36.0,30.25,SW,228,0.0,4.0,30,0.00,,,0.00,weatherlink.com 1.10,2013-04-06 19:39:00,
2013-04-06 16:09:00,69.2,34.0,30.24,East,84,0.0,8.0,27,0.00,,,0.00,weatherlink.com 1.10,2013-04-06 20:09:00,
2013-04-06 16:24:00,68.0,37.0,30.24,WSW,256,0.0,1.0,32,0.00,,,0.00,weatherlink.com 1.10,2013-04-06 20:24:00,
2013-04-06 16:39:00,68.8,36.0,30.23,WNW,295,0.0,3.0,30,0.00,,,0.00,weatherlink.com 1.10,2013-04-06 20:39:00,
2013-04-06 17:09:00,69.2,36.0,30.23,West,267,0.0,3.0,30,0.00,,,0.00,weatherlink.com 1.10,2013-04-06 21:09:00,
2013-04-06 17:24:00,67.9,37.0,30.24,WNW,300,0.0,4.0,32,0.00,,,0.00,weatherlink.com 1.10,2013-04-06 21:24:00,
2013-04-06 17:39:00,68.1,34.0,30.23,West,277,0.0,3.0,28,0.00,,,0.00,weatherlink.com 1.10,2013-04-06 21:39:00,
2013-04-06 18:24:00,69.0,36.0,30.24,SSW,210,0.0,2.0,30,0.00,,,0.00,weatherlink.com 1.10,2013-04-06 22:24:00,
2013-04-06 18:39:00,68.6,37.0,30.24,WSW,246,0.0,0.0,31,0.00,,,0.00,weatherlink.com 1.10,2013-04-06 22:39:00,
2013-04-06 19:09:00,65.0,38.0,30.24,West,270,0.0,0.0,37,0.00,,,0.00,weatherlink.com 1.10,2013-04-06 23:09:00,
2013-04-06 19:24:00,63.3,37.0,30.24,West,271,0.0,1.0,38,0.00,,,0.00,weatherlink.com 1.10,2013-04-06 23:24:00,
2013-04-06 19:39:00,61.6,37.0,30.24,SE,138,0.0,0.0,40,0.00,,,0.00,weatherlink.com 1.10,2013-04-06 23:39:00,
2013-04-06 20:24:00,59.1,35.0,30.24,ENE,75,0.0,0.0,41,0.00,,,0.00,weatherlink.com 1.10,2013-04-07 00:24:00,
2013-04-06 20:39:00,58.7,35.0,30.24,ENE,68,0.0,0.0,42,0.00,,,0.00,weatherlink.com 1.10,2013-04-07 00:39:00,
2013-04-06 20:54:00,58.4,35.0,30.24,ENE,68,0.0,0.0,42,0.00,,,0.00,weatherlink.com 1.10,2013-04-07 00:54:00,
2013-04-06 21:09:00,58.2,35.0,30.24,East,83,0.0,0.0,42,0.00,,,0.00,weatherlink.com 1.10,2013-04-07 01:09:00,
2013-04-06 21:24:00,57.8,35.0,30.25,East,88,0.0,0.0,43,0.00,,,0.00,weatherlink.com 1.10,2013-04-07 01:24:00,
2013-04-06 21:39:00,57.8,35.0,30.26,NNW,347,0.0,0.0,43,0.00,,,0.00,weatherlink.com 1.10,2013-04-07 01:39:00,
2013-04-06 21:54:00,57.9,35.0,30.26,ENE,75,0.0,0.0,42,0.00,,,0.00,weatherlink.com 1.10,2013-04-07 01:54:00,
2013-04-06 22:09:00,57.2,35.0,30.26,SW,228,0.0,0.0,43,0.00,,,0.00,weatherlink.com 1.10,2013-04-07 02:09:00,
2013-04-06 22:39:00,56.8,35.0,30.27,ESE,103,0.0,0.0,44,0.00,,,0.00,weatherlink.com 1.10,2013-04-07 02:39:00,
2013-04-06 22:54:00,56.5,35.0,30.27,East,83,0.0,0.0,44,0.00,,,0.00,weatherlink.com 1.10,2013-04-07 02:54:00,
2013-04-06 23:09:00,56.2,35.0,30.27,NE,44,0.0,0.0,45,0.00,,,0.00,weatherlink.com 1.10,2013-04-07 03:09:00,
2013-04-06 23:39:00,54.8,35.0,30.27,East,99,0.0,0.0,48,0.00,,,0.00,weatherlink.com 1.10,2013-04-07 03:39:00,
2013-04-06 23:54:00,54.6,36.0,30.27,WNW,302,0.0,0.0,49,0.00,,,0.00,weatherlink.com 1.10,2013-04-07 03:54:00,